x

Sheboygan, Wi (sgnw3) Weather Station

10:00am - Fri 29th Aug 2014 All times are CDT. -5 hours from GMT.

  • Wind
    15mph, 17mph gusts
  • Sea Temp 69°f
  • Air Temp 68°f
  • Sea Pressure 1014.4mb
  • Sheboygan, Wi
  • Sheboygan, Wi

More Historic Weather Station data

Upgrade to MSW Pro to gain access to the past 30 days of data for over 8000 Wavebouys and Weather Stations around the globe.

Join Pro

Comparision Forecast

View Surf forecast
   
Fri 08/29 10:00am 15 17 mph 1014.4mb 69f 68f
9:00am 15 16 mph 1014.5mb 69f 68f
8:00am 17 18 mph 1014.7mb 69f 68f
7:00am 17 18 mph 1014.6mb 69f 68f
6:00am 20 22 mph 1014.6mb 69f 67f
5:00am 20 21 mph 1014.8mb 69f 67f
4:00am 20 22 mph 1015mb 69f 67f
3:00am 17 18 mph 1015.2mb 69f 67f
2:00am 14 17 mph 1016.2mb 69f 67f
1:00am 14 16 mph 1017.3mb 69f 67f
12:00am 11 13 mph 1017.8mb 70f 66f
Thu 08/28 11:00pm 15
mph
1017.9mb 69f 66f
10:00pm 14 15 mph 1018.2mb 67f 66f
9:00pm 10 11 mph 1018.8mb 68f 66f
8:00pm 7 8 mph 1019mb 68f 66f
7:00pm 5 6 mph 1019.2mb 70f 66f
6:00pm 7
mph
1019.1mb 70f 65f
5:00pm 7 8 mph 1019.5mb 70f 65f
4:00pm 10 11 mph 1020.3mb 70f 65f
3:00pm 11 13 mph 1020.6mb 69f 65f
2:00pm 13 14 mph 1021.1mb 69f 65f
1:00pm 13 14 mph 1021.5mb 69f 65f
12:00pm 15 16 mph 1021.8mb 68f 65f
11:00am 16 17 mph 1021.9mb 69f 65f
10:00am 15 16 mph 1021.6mb 68f 64f
9:00am 14 15 mph 1021.6mb 68f 65f
8:00am 14 16 mph 1021.5mb 68f 65f
7:00am 13 15 mph 1021.3mb 68f 64f
6:00am 15 16 mph 1021.1mb 68f 65f
5:00am 11 13 mph 1021.3mb 69f 65f
4:00am 7 8 mph 1021.3mb 68f 65f
3:00am  -  1 mph 1021.6mb 70f 63f
2:00am 2 3 mph 1021.6mb 68f 63f
1:00am 3
mph
1021.5mb 69f 64f
12:00am 7 8 mph 1021.3mb 69f 66f
Wed 08/27 11:00pm 9
mph
1021.3mb 68f 66f
10:00pm 8 9 mph 1021.2mb 68f 66f
9:00pm 7 8 mph 1021mb 68f 65f
8:00pm 8
mph
1020.7mb 69f 66f
7:00pm 7
mph
1020.7mb 67f 66f
6:00pm 6 7 mph 1021.2mb 68f 66f
5:00pm 7 8 mph 1021.5mb 68f 66f
4:00pm 7 8 mph 1021.6mb 68f 66f
3:00pm 8 9 mph 1021.8mb 68f 65f
2:00pm 8 9 mph 1022.1mb 67f 65f
1:00pm 7 8 mph 1022.3mb 67f 65f
12:00pm 6 7 mph 1022.7mb 67f 65f
11:00am 9 10 mph 1022.5mb 66f 65f
10:00am 8 9 mph 1022.6mb 66f 65f
9:00am 8 10 mph 1022mb 66f 65f
8:00am 14 15 mph 1021.1mb 66f 65f
7:00am 16 17 mph 1021.3mb 66f 64f
6:00am 23 24 mph 1021mb 66f 64f
5:00am 10 13 mph 1020.8mb 66f 63f
4:00am 11 13 mph 1020.8mb 66f 64f
3:00am 10 11 mph 1020.6mb 64f 65f
2:00am 11 13 mph 1019.9mb 66f 66f
1:00am 7 8 mph 1020.2mb 65f 66f
12:00am 7 8 mph 1020.2mb 66f 65f
Tue 08/26 11:00pm 6 7 mph 1019.9mb 66f 67f
10:00pm 7 8 mph 1019.6mb 66f 69f
9:00pm 6 7 mph 1019.2mb 64f 70f
8:00pm 7 8 mph 1018.9mb 65f 71f
7:00pm 10 13 mph 1018.7mb 68f 73f
6:00pm 3 5 mph 1018.7mb 66f 72f
5:00pm 2 5 mph 1018.8mb 66f 71f
4:00pm 10 11 mph 1018.6mb 66f 70f
3:00pm 7 9 mph 1018.6mb 64f 70f
2:00pm 2
mph
1018.9mb 62f 70f
1:00pm 8 9 mph 1019.2mb 64f 69f
12:00pm 8 10 mph 1019.2mb 64f 71f
11:00am 10 14 mph 1019.6mb 65f 72f
10:00am 13 16 mph 1019.6mb 62f 71f
9:00am 14 17 mph 1019.3mb 63f 69f
8:00am 14 16 mph 1018.9mb 63f 69f
7:00am 10 13 mph 1018.2mb 63f 70f
6:00am 13 15 mph 1017.4mb 65f 71f
5:00am 11 14 mph 1016.4mb 60f 71f
4:00am 11 13 mph 1015.8mb 60f 70f
3:00am 11 14 mph 1015.5mb 61f 69f
2:00am 10 13 mph 1015.4mb 64f 69f
1:00am 7 9 mph 1015.6mb 67f 69f
12:00am 10 11 mph 1015.4mb 66f 70f
Mon 08/25 11:00pm 9
mph
1015.6mb 63f 71f
10:00pm 10
mph
1015.5mb 65f 71f
9:00pm 5 6 mph 1015.2mb 66f 70f
8:00pm 7 9 mph 1014.7mb 66f 70f
7:00pm 11 14 mph 1014.6mb 67f 69f
6:00pm 16 17 mph 1015.3mb 67f 69f
5:00pm 14 15 mph 1015.3mb 65f 69f